Averill, Vermont
Current Conditions -  °F | °C
As of 6:00 AM on Tuesday 21 Oct 2014 (Local Time) from CYSC Reporting Station
Overcast Overcast  
Wind Chill: 38°   Ceiling: 6500
Heat Index: 41°   Visibility: 9mi
Dew Point: 37°   Wind: 5mph
Humidity: 87%   Direction: 60°ENE
Pressure: 29.97"   Gusts: NA
Location:  45°N, 71.71°W
Report Text: CYSC 211000Z AUTO 06004KT 9SM OVC065 05/03 A2997 RMK SLP156
Loading
Personal Weather Stations






























Interactive Weather Map New forecast layout! Learn more

10-Day Weather Forecast

Advertisements
Track Severe Weather on mobile